createdAt,value
2019-03-10T00:01:22.054Z,2.80
2019-03-10T00:03:25.911Z,3.15
2019-03-10T00:05:29.726Z,4.78
2019-03-10T00:07:33.586Z,4.12
2019-03-10T00:09:37.439Z,2.77
2019-03-10T00:11:41.340Z,2.70
2019-03-10T00:13:45.448Z,5.20
2019-03-10T00:15:49.277Z,3.60
2019-03-10T00:17:53.143Z,6.78
2019-03-10T00:19:56.987Z,5.37
2019-03-10T00:22:00.885Z,5.72
2019-03-10T00:24:04.727Z,5.17
2019-03-10T00:26:08.663Z,4.65
2019-03-10T00:28:12.531Z,6.17
2019-03-10T00:30:17.893Z,7.53
2019-03-10T00:32:21.737Z,6.47
2019-03-10T00:34:25.740Z,6.15
2019-03-10T00:36:29.751Z,10.10
2019-03-10T00:38:42.101Z,5.67
2019-03-10T00:41:07.079Z,5.40
2019-03-10T00:43:28.948Z,9.60
2019-03-10T00:45:38.438Z,8.30
2019-03-10T00:48:08.187Z,5.37
2019-03-10T00:50:48.180Z,5.15
2019-03-10T00:53:01.506Z,6.25
2019-03-10T00:57:08.666Z,3.42
2019-03-10T00:59:12.532Z,7.65
2019-03-10T01:01:16.353Z,4.95
2019-03-10T01:03:20.243Z,5.10
2019-03-10T01:05:24.324Z,4.80
2019-03-10T01:07:28.345Z,8.28
2019-03-10T01:09:32.219Z,9.88
2019-03-10T01:11:36.062Z,6.65
2019-03-10T01:13:39.983Z,8.78
2019-03-10T01:15:44.512Z,9.65
2019-03-10T01:17:49.239Z,11.85
2019-03-10T01:19:53.362Z,8.25
2019-03-10T01:21:57.620Z,8.95
2019-03-10T01:24:01.479Z,8.73
2019-03-10T01:26:05.306Z,8.43
2019-03-10T01:28:09.191Z,8.90
2019-03-10T01:30:16.065Z,6.47
2019-03-10T01:32:28.555Z,8.83
2019-03-10T01:34:47.754Z,9.03
2019-03-10T01:36:51.604Z,6.08
2019-03-10T01:38:55.451Z,8.25
2019-03-10T01:40:59.332Z,4.42
2019-03-10T01:43:03.191Z,7.65
2019-03-10T01:45:10.136Z,7.15
2019-03-10T01:47:13.990Z,10.03
2019-03-10T01:49:17.831Z,10.13
2019-03-10T01:51:21.749Z,7.83
2019-03-10T01:53:26.073Z,7.70
2019-03-10T01:55:30.063Z,7.35
2019-03-10T01:57:33.944Z,7.70
2019-03-10T01:59:37.790Z,7.15
2019-03-10T02:01:41.617Z,8.88
2019-03-10T02:03:45.543Z,7.12
2019-03-10T02:05:49.411Z,8.35
2019-03-10T02:07:53.433Z,6.50
2019-03-10T02:09:57.318Z,6.17
2019-03-10T02:12:01.132Z,8.75
2019-03-10T02:14:05.091Z,6.05
2019-03-10T02:16:08.942Z,7.75
2019-03-10T02:18:12.810Z,7.10
2019-03-10T02:20:18.139Z,7.40
2019-03-10T02:22:21.975Z,8.45
2019-03-10T02:24:25.806Z,6.75
2019-03-10T02:26:29.661Z,7.92
2019-03-10T02:28:33.500Z,7.75
2019-03-10T02:30:37.378Z,6.40
2019-03-10T02:32:41.336Z,11.83
2019-03-10T02:34:45.186Z,6.75
2019-03-10T02:36:49.081Z,6.65
2019-03-10T02:38:52.953Z,5.33
2019-03-10T02:40:56.782Z,4.40
2019-03-10T02:43:00.610Z,6.40
2019-03-10T02:45:05.660Z,5.67
2019-03-10T02:47:09.559Z,11.30
2019-03-10T02:49:13.434Z,9.20
2019-03-10T02:51:17.292Z,4.58
2019-03-10T02:53:21.191Z,6.75
2019-03-10T02:55:25.057Z,8.35
2019-03-10T02:57:28.912Z,5.30
2019-03-10T02:59:32.788Z,6.42
2019-03-10T03:01:36.635Z,10.70
2019-03-10T03:03:40.558Z,6.17
2019-03-10T03:05:44.407Z,4.00
2019-03-10T03:07:48.286Z,8.33
2019-03-10T03:09:52.176Z,4.25
2019-03-10T03:11:56.064Z,5.60
2019-03-10T03:13:59.943Z,7.10
2019-03-10T03:16:03.748Z,7.65
2019-03-10T03:18:07.605Z,7.85
2019-03-10T03:20:13.027Z,7.28
2019-03-10T03:22:16.935Z,4.87
2019-03-10T03:24:21.183Z,6.80
2019-03-10T03:26:25.044Z,9.83
2019-03-10T03:28:28.908Z,8.88
2019-03-10T03:30:32.842Z,7.00
2019-03-10T03:32:36.667Z,10.98
2019-03-10T03:34:40.505Z,8.53
2019-03-10T03:36:44.388Z,10.38
2019-03-10T03:38:53.925Z,8.55
2019-03-10T03:41:06.484Z,5.62
2019-03-10T03:43:10.364Z,9.18
2019-03-10T03:45:14.230Z,5.67
2019-03-10T03:47:18.091Z,4.53
2019-03-10T03:49:21.950Z,4.62
2019-03-10T03:51:25.802Z,4.35
2019-03-10T03:53:29.629Z,9.23
2019-03-10T03:55:33.512Z,7.20
2019-03-10T03:57:37.382Z,7.78
2019-03-10T03:59:41.206Z,9.45
2019-03-10T04:01:49.603Z,7.17
2019-03-10T04:03:53.414Z,9.00
2019-03-10T04:05:57.280Z,5.92
2019-03-10T04:08:01.298Z,7.30
2019-03-10T04:10:08.038Z,6.08
2019-03-10T04:12:11.862Z,8.05
2019-03-10T04:14:15.786Z,7.55
2019-03-10T04:16:19.630Z,5.75
2019-03-10T04:18:23.465Z,5.17
2019-03-10T04:20:27.337Z,7.17
2019-03-10T04:22:31.252Z,7.37
2019-03-10T04:24:35.117Z,6.72
2019-03-10T04:26:38.983Z,8.48
2019-03-10T04:28:42.851Z,8.88
2019-03-10T04:30:46.709Z,6.37
2019-03-10T04:32:50.538Z,6.12
2019-03-10T04:34:54.447Z,4.33
2019-03-10T04:36:58.321Z,7.35
2019-03-10T04:39:02.183Z,7.35
2019-03-10T04:41:06.102Z,8.90
2019-03-10T04:43:09.971Z,8.25
2019-03-10T04:45:13.846Z,8.73
2019-03-10T04:47:17.706Z,6.33
2019-03-10T04:49:21.602Z,6.80
2019-03-10T04:51:25.432Z,5.30
2019-03-10T04:53:29.289Z,9.03
2019-03-10T04:55:51.049Z,5.53
2019-03-10T04:57:59.207Z,4.12
2019-03-10T05:00:03.183Z,9.25
2019-03-10T05:02:07.037Z,5.87
2019-03-10T05:04:10.877Z,9.23
2019-03-10T05:06:14.715Z,8.53
2019-03-10T05:08:18.586Z,6.72
2019-03-10T05:10:24.996Z,9.78
2019-03-10T05:12:28.042Z,9.25
2019-03-10T05:14:31.890Z,7.90
2019-03-10T05:16:35.807Z,9.75
2019-03-10T05:18:39.643Z,4.97
2019-03-10T05:20:43.529Z,5.85
2019-03-10T05:22:47.747Z,7.70
2019-03-10T05:24:51.562Z,7.83
2019-03-10T05:26:55.512Z,9.28
2019-03-10T05:28:59.337Z,8.00
2019-03-10T05:31:03.266Z,9.10
2019-03-10T05:33:07.203Z,10.32
2019-03-10T05:35:11.059Z,6.78
2019-03-10T05:37:14.916Z,3.40
2019-03-10T05:39:18.794Z,5.47
2019-03-10T05:41:22.584Z,9.75
2019-03-10T05:43:26.411Z,7.65
2019-03-10T05:45:30.315Z,5.95
2019-03-10T05:47:34.170Z,6.47
2019-03-10T05:49:38.047Z,7.45
2019-03-10T05:51:41.927Z,9.78
2019-03-10T05:53:45.824Z,7.42
2019-03-10T05:55:49.728Z,5.83
2019-03-10T05:57:53.670Z,3.75
2019-03-10T05:59:57.523Z,6.28
2019-03-10T06:02:01.474Z,5.35
2019-03-10T06:04:05.368Z,8.58
2019-03-10T06:06:09.236Z,5.30
2019-03-10T06:08:13.065Z,5.70
2019-03-10T06:10:16.909Z,6.20
2019-03-10T06:12:20.775Z,8.03
2019-03-10T06:14:24.682Z,4.10
2019-03-10T06:16:28.563Z,4.75
2019-03-10T06:18:32.521Z,4.75
2019-03-10T06:20:36.423Z,5.90
2019-03-10T06:22:40.241Z,7.95
2019-03-10T06:24:44.095Z,6.47
2019-03-10T06:26:47.963Z,7.55
2019-03-10T06:28:51.831Z,7.70
2019-03-10T06:30:56.533Z,6.58
2019-03-10T06:33:00.571Z,6.90
2019-03-10T06:35:05.590Z,7.95
2019-03-10T06:37:09.449Z,6.50
2019-03-10T06:39:13.340Z,9.40
2019-03-10T06:41:17.192Z,7.65
2019-03-10T06:43:21.284Z,8.85
2019-03-10T06:45:25.262Z,6.75
2019-03-10T06:47:29.099Z,7.80
2019-03-10T06:49:32.991Z,6.90
2019-03-10T06:51:36.883Z,9.23
2019-03-10T06:53:40.704Z,7.60
2019-03-10T06:55:44.567Z,8.75
2019-03-10T06:57:48.417Z,8.28
2019-03-10T06:59:52.253Z,11.53
2019-03-10T07:01:56.156Z,7.90
2019-03-10T07:04:00.025Z,10.98
2019-03-10T07:06:03.900Z,10.93
2019-03-10T07:08:07.730Z,10.23
2019-03-10T07:10:17.639Z,8.65
2019-03-10T07:12:21.572Z,9.50
2019-03-10T07:14:25.402Z,10.05
2019-03-10T07:16:29.280Z,11.70
2019-03-10T07:18:33.183Z,8.93
2019-03-10T07:20:37.032Z,10.43
2019-03-10T07:22:40.859Z,14.25
2019-03-10T07:24:44.723Z,8.78
2019-03-10T07:26:48.552Z,8.70
2019-03-10T07:29:10.415Z,11.35
2019-03-10T07:31:30.882Z,12.33
2019-03-10T07:33:41.961Z,12.95
2019-03-10T07:35:50.378Z,12.93
2019-03-10T07:37:55.825Z,10.72
2019-03-10T07:40:04.311Z,12.20
2019-03-10T07:42:15.755Z,12.95
2019-03-10T07:44:24.055Z,11.95
2019-03-10T07:46:41.819Z,12.33
2019-03-10T07:48:47.224Z,11.08
2019-03-10T07:50:52.712Z,14.90
2019-03-10T07:53:10.498Z,12.50
2019-03-10T07:55:25.204Z,12.03
2019-03-10T07:57:39.402Z,11.93
2019-03-10T07:59:44.784Z,10.20
2019-03-10T08:02:02.559Z,15.30
2019-03-10T08:04:14.146Z,16.37
2019-03-10T08:06:19.567Z,13.40
2019-03-10T08:08:24.995Z,11.20
2019-03-10T08:10:33.168Z,13.35
2019-03-10T08:12:44.301Z,12.10
2019-03-10T08:14:49.722Z,10.55
2019-03-10T08:17:04.337Z,9.70
2019-03-10T08:19:25.024Z,10.70
2019-03-10T08:21:46.523Z,13.62
2019-03-10T08:23:57.727Z,9.40
2019-03-10T08:26:18.499Z,15.00
2019-03-10T08:28:29.946Z,11.10
2019-03-10T08:30:35.354Z,13.32
2019-03-10T08:32:52.951Z,14.35
2019-03-10T08:35:14.664Z,10.20
2019-03-10T08:37:29.178Z,12.90
2019-03-10T08:39:34.970Z,11.97
2019-03-10T08:41:43.135Z,9.03
2019-03-10T08:44:00.478Z,12.33
2019-03-10T08:46:08.955Z,12.53
2019-03-10T08:48:20.291Z,10.28
2019-03-10T08:50:25.754Z,12.47
2019-03-10T08:52:40.335Z,13.68
2019-03-10T08:54:45.771Z,13.65
2019-03-10T08:56:51.182Z,12.93
2019-03-10T08:59:13.183Z,12.10
2019-03-10T09:01:18.589Z,14.65
2019-03-10T09:03:23.994Z,13.32
2019-03-10T09:05:32.114Z,13.48
2019-03-10T09:07:37.530Z,10.78
2019-03-10T09:09:48.954Z,13.08
2019-03-10T09:12:00.309Z,13.13
2019-03-10T09:14:05.718Z,13.72
2019-03-10T09:16:11.236Z,12.90
2019-03-10T09:18:16.669Z,15.35
2019-03-10T09:20:22.109Z,11.43
2019-03-10T09:22:33.831Z,10.55
2019-03-10T09:24:39.275Z,14.13
2019-03-10T09:27:01.335Z,16.93
2019-03-10T09:29:09.956Z,15.25
2019-03-10T09:31:15.416Z,12.85
2019-03-10T09:33:20.848Z,12.78
2019-03-10T09:35:35.343Z,19.00
2019-03-10T09:37:49.902Z,23.40
2019-03-10T09:39:55.301Z,16.48
2019-03-10T09:42:17.218Z,16.45
2019-03-10T09:44:28.432Z,15.78
2019-03-10T09:46:39.806Z,17.17
2019-03-10T09:48:54.238Z,17.17
2019-03-10T09:51:16.277Z,20.70
2019-03-10T09:53:36.701Z,19.75
2019-03-10T09:55:47.813Z,19.00
2019-03-10T09:57:56.238Z,17.17
2019-03-10T10:00:16.758Z,14.13
2019-03-10T10:02:22.216Z,12.40
2019-03-10T10:04:27.624Z,15.28
2019-03-10T10:06:42.020Z,17.40
2019-03-10T10:08:50.110Z,15.88
2019-03-10T10:10:55.546Z,12.58
2019-03-10T10:13:19.006Z,17.32
2019-03-10T10:15:24.450Z,20.95
2019-03-10T10:17:41.903Z,24.07
2019-03-10T10:19:47.324Z,19.98
2019-03-10T10:21:52.750Z,22.73
2019-03-10T10:23:58.173Z,22.48
2019-03-10T10:26:03.577Z,21.57
2019-03-10T10:28:15.153Z,20.62
2019-03-10T10:30:20.554Z,23.05
2019-03-10T10:32:34.823Z,20.27
2019-03-10T10:34:40.308Z,20.15
2019-03-10T10:37:01.907Z,25.48
2019-03-10T10:39:24.641Z,23.32
2019-03-10T10:41:30.178Z,20.80
2019-03-10T10:43:38.651Z,21.37
2019-03-10T10:45:44.080Z,17.30
2019-03-10T10:48:01.363Z,19.05
2019-03-10T10:50:10.183Z,17.85
2019-03-10T10:52:15.591Z,18.65
2019-03-10T10:54:37.357Z,18.70
2019-03-10T10:56:54.919Z,18.62
2019-03-10T10:59:03.066Z,20.30
2019-03-10T11:01:11.328Z,19.32
2019-03-10T11:03:22.279Z,22.22
2019-03-10T11:05:27.730Z,22.52
2019-03-10T11:12:23.384Z,18.85
2019-03-10T11:14:28.828Z,17.87
2019-03-10T11:16:45.625Z,18.82
2019-03-10T11:18:51.390Z,23.15
2019-03-10T11:20:59.294Z,17.35
2019-03-10T11:23:04.728Z,19.25
2019-03-10T11:25:10.510Z,16.57
2019-03-10T11:27:24.558Z,15.32
2019-03-10T11:29:33.391Z,20.62
2019-03-10T11:31:44.919Z,19.20
2019-03-10T11:33:53.617Z,20.52
2019-03-10T11:35:59.061Z,16.23
2019-03-10T11:38:04.570Z,16.37
2019-03-10T11:40:23.501Z,15.58
2019-03-10T11:42:43.971Z,16.70
2019-03-10T11:44:49.512Z,18.50
2019-03-10T11:46:57.919Z,16.12
2019-03-10T11:49:18.415Z,16.55
2019-03-10T11:51:41.806Z,14.15
2019-03-10T11:53:47.304Z,15.58
2019-03-10T11:55:52.757Z,15.38
2019-03-10T11:58:04.019Z,10.98
2019-03-10T12:00:12.386Z,13.28
2019-03-10T12:02:20.547Z,15.08
2019-03-10T12:04:32.008Z,13.65
2019-03-10T12:06:53.790Z,16.07
2019-03-10T12:09:08.216Z,15.60
2019-03-10T12:11:12.091Z,21.80
2019-03-10T12:13:15.966Z,19.67
2019-03-10T12:15:19.818Z,16.40
2019-03-10T12:17:23.703Z,18.17
2019-03-10T12:19:27.560Z,19.85
2019-03-10T12:21:31.409Z,14.75
2019-03-10T12:23:35.278Z,10.32
2019-03-10T12:25:39.207Z,10.13
2019-03-10T12:27:43.038Z,11.97
2019-03-10T12:29:46.933Z,12.82
2019-03-10T12:31:50.819Z,12.63
2019-03-10T12:33:54.663Z,18.15
2019-03-10T12:35:58.513Z,21.40
2019-03-10T12:38:02.357Z,15.48
2019-03-10T12:40:09.154Z,15.32
2019-03-10T12:42:13.075Z,13.93
2019-03-10T12:44:16.898Z,17.25
2019-03-10T12:46:20.699Z,20.35
2019-03-10T12:48:24.647Z,16.17
2019-03-10T12:50:28.570Z,14.87
2019-03-10T12:52:32.419Z,14.03
2019-03-10T12:54:36.383Z,9.50
2019-03-10T12:56:40.788Z,7.80
2019-03-10T12:58:44.769Z,7.17
2019-03-10T13:00:48.639Z,9.80
2019-03-10T13:02:52.474Z,10.45
2019-03-10T13:04:56.328Z,11.88
2019-03-10T13:07:00.206Z,11.83
2019-03-10T13:09:05.939Z,16.37
2019-03-10T13:11:09.786Z,16.02
2019-03-10T13:13:13.699Z,17.73
2019-03-10T13:15:17.557Z,22.52
2019-03-10T13:17:21.381Z,25.25
2019-03-10T13:19:25.290Z,32.30
2019-03-10T13:21:29.131Z,22.60
2019-03-10T13:23:32.989Z,13.85
2019-03-10T13:25:36.814Z,14.78
2019-03-10T13:27:40.675Z,12.05
2019-03-10T13:29:44.519Z,11.45
2019-03-10T13:31:48.383Z,13.18
2019-03-10T13:33:52.261Z,11.38
2019-03-10T13:35:57.123Z,12.75
2019-03-10T13:38:01.118Z,17.55
2019-03-10T13:40:08.381Z,11.85
2019-03-10T13:42:12.180Z,17.37
2019-03-10T13:44:16.071Z,15.98
2019-03-10T13:46:20.493Z,19.07
2019-03-10T13:48:24.345Z,16.60
2019-03-10T13:50:28.209Z,19.73
2019-03-10T13:52:32.114Z,59.45
2019-03-10T13:54:35.958Z,25.77
2019-03-10T13:56:39.830Z,47.20
2019-03-10T13:58:43.665Z,67.67
2019-03-10T14:00:47.613Z,54.18
2019-03-10T14:02:51.482Z,34.18
2019-03-10T14:04:55.365Z,20.95
2019-03-10T14:06:59.265Z,79.27
2019-03-10T14:09:04.040Z,22.05
2019-03-10T14:11:07.899Z,19.67
2019-03-10T14:13:11.783Z,31.10
2019-03-10T14:15:18.777Z,20.95
2019-03-10T14:17:22.644Z,21.42
2019-03-10T14:19:26.559Z,31.23
2019-03-10T14:21:32.173Z,28.95
2019-03-10T14:23:35.878Z,18.52
2019-03-10T14:25:39.778Z,16.32
2019-03-10T14:27:43.741Z,17.00
2019-03-10T14:29:47.534Z,17.75
2019-03-10T14:31:51.447Z,14.90
2019-03-10T14:33:57.079Z,17.37
2019-03-10T14:36:00.775Z,15.35
2019-03-10T14:38:04.674Z,19.62
2019-03-10T14:40:14.055Z,15.55
2019-03-10T14:42:17.895Z,13.32
2019-03-10T14:44:21.773Z,13.22
2019-03-10T14:46:25.626Z,14.93
2019-03-10T14:48:29.546Z,12.78
2019-03-10T14:50:33.378Z,12.25
2019-03-10T14:52:37.225Z,13.45
2019-03-10T14:54:41.127Z,14.43
2019-03-10T14:56:44.987Z,11.60
2019-03-10T14:58:48.847Z,15.80
2019-03-10T15:00:52.694Z,19.92
2019-03-10T15:02:56.616Z,15.83
2019-03-10T15:05:00.502Z,17.15
2019-03-10T15:07:04.340Z,17.42
2019-03-10T15:09:08.600Z,16.17
2019-03-10T15:11:12.501Z,17.98
2019-03-10T15:13:16.375Z,16.37
2019-03-10T15:15:22.787Z,14.70
2019-03-10T15:17:26.680Z,17.65
2019-03-10T15:19:30.507Z,15.75
2019-03-10T15:21:34.384Z,15.53
2019-03-10T15:23:40.280Z,18.27
2019-03-10T15:25:43.865Z,17.12
2019-03-10T15:27:47.721Z,23.70
2019-03-10T15:29:51.599Z,23.95
2019-03-10T15:31:55.433Z,25.10
2019-03-10T15:33:59.286Z,23.95
2019-03-10T15:36:03.174Z,22.73
2019-03-10T15:38:07.002Z,19.62
2019-03-10T15:40:13.756Z,18.73
2019-03-10T15:42:17.590Z,21.40
2019-03-10T15:44:21.654Z,17.15
2019-03-10T15:46:25.559Z,13.28
2019-03-10T15:48:29.396Z,19.10
2019-03-10T15:50:35.164Z,17.80
2019-03-10T15:52:39.089Z,21.93
2019-03-10T15:54:42.947Z,24.52
2019-03-10T15:56:46.785Z,25.70
2019-03-10T15:58:50.723Z,20.52
2019-03-10T16:00:54.596Z,26.17
2019-03-10T16:02:58.466Z,26.65
2019-03-10T16:05:02.356Z,22.80
2019-03-10T16:07:06.221Z,27.42
2019-03-10T16:09:10.086Z,28.27
2019-03-10T16:11:13.994Z,22.05
2019-03-10T16:13:17.979Z,23.15
2019-03-10T16:15:28.846Z,23.75
2019-03-10T16:17:32.754Z,30.65
2019-03-10T16:19:36.637Z,30.02
2019-03-10T16:21:40.473Z,66.05
2019-03-10T16:23:45.250Z,30.15
2019-03-10T16:25:49.165Z,29.40
2019-03-10T16:27:53.122Z,27.93
2019-03-10T16:29:57.023Z,31.42
2019-03-10T16:32:00.882Z,24.15
2019-03-10T16:34:04.797Z,23.12
2019-03-10T16:36:08.673Z,21.45
2019-03-10T16:38:12.515Z,26.12
2019-03-10T16:40:21.175Z,23.47
2019-03-10T16:42:25.003Z,32.63
2019-03-10T16:44:28.885Z,26.37
2019-03-10T16:46:32.733Z,27.50
2019-03-10T16:48:36.659Z,33.28
2019-03-10T16:50:40.479Z,34.35
2019-03-10T16:52:44.385Z,31.10
2019-03-10T16:54:48.263Z,31.35
2019-03-10T16:56:52.101Z,30.15
2019-03-10T16:58:56.010Z,33.67
2019-03-10T17:00:59.889Z,31.73
2019-03-10T17:03:03.703Z,27.42
2019-03-10T17:05:16.268Z,28.12
2019-03-10T17:07:20.148Z,27.48
2019-03-10T17:09:24.007Z,30.95
2019-03-10T17:11:27.857Z,28.70
2019-03-10T17:13:31.749Z,31.77
2019-03-10T17:15:35.630Z,33.30
2019-03-10T17:17:39.517Z,31.35
2019-03-10T17:19:43.427Z,32.65
2019-03-10T17:21:47.339Z,34.20
2019-03-10T17:23:51.301Z,34.18
2019-03-10T17:25:55.196Z,40.12
2019-03-10T17:27:59.064Z,38.85
2019-03-10T17:30:12.497Z,37.23
2019-03-10T17:32:16.425Z,40.95
2019-03-10T17:34:20.380Z,43.38
2019-03-10T17:36:24.243Z,45.60
2019-03-10T17:38:28.106Z,46.37
2019-03-10T17:40:32.012Z,46.35
2019-03-10T17:42:36.222Z,40.05
2019-03-10T17:44:41.442Z,37.15
2019-03-10T17:46:46.005Z,43.30
2019-03-10T17:48:49.907Z,39.80
2019-03-10T17:50:53.781Z,35.85
2019-03-10T17:52:57.636Z,34.60
2019-03-10T17:55:01.499Z,29.67
2019-03-10T17:57:05.412Z,29.48
2019-03-10T17:59:09.319Z,23.77
2019-03-10T18:01:13.185Z,24.57
2019-03-10T18:03:17.047Z,17.55
2019-03-10T18:05:20.926Z,16.00
2019-03-10T18:07:25.136Z,13.45
2019-03-10T18:09:28.993Z,10.93
2019-03-10T18:11:32.884Z,10.60
2019-03-10T18:13:36.789Z,15.15
2019-03-10T18:15:40.689Z,12.45
2019-03-10T18:17:44.583Z,10.93
2019-03-10T18:19:48.508Z,11.18
2019-03-10T18:21:52.378Z,8.75
2019-03-10T18:23:56.201Z,9.13
2019-03-10T18:26:00.308Z,12.50
2019-03-10T18:28:06.141Z,13.70
2019-03-10T18:30:17.839Z,10.10
2019-03-10T18:32:21.885Z,9.43
2019-03-10T18:34:25.735Z,8.45
2019-03-10T18:36:29.591Z,9.53
2019-03-10T18:38:33.418Z,11.55
2019-03-10T18:40:37.339Z,11.00
2019-03-10T18:42:41.227Z,11.18
2019-03-10T18:44:45.083Z,9.05
2019-03-10T18:46:48.984Z,6.10
2019-03-10T18:48:52.764Z,7.60
2019-03-10T18:50:56.611Z,7.30
2019-03-10T18:53:00.465Z,5.67
2019-03-10T18:55:04.633Z,8.83
2019-03-10T18:57:10.153Z,7.00
2019-03-10T18:59:13.986Z,6.83
2019-03-10T19:01:17.847Z,6.80
2019-03-10T19:03:21.726Z,8.58
2019-03-10T19:05:25.654Z,9.38
2019-03-10T19:07:29.492Z,11.43
2019-03-10T19:09:33.674Z,9.73
2019-03-10T19:11:37.538Z,9.30
2019-03-10T19:13:41.389Z,9.60
2019-03-10T19:15:45.290Z,11.73
2019-03-10T19:17:49.148Z,12.78
2019-03-10T19:19:53.005Z,11.00
2019-03-10T19:21:56.801Z,10.60
2019-03-10T19:24:00.591Z,7.62
2019-03-10T19:26:04.509Z,8.25
2019-03-10T19:28:08.371Z,5.55
2019-03-10T19:30:22.762Z,10.65
2019-03-10T19:32:26.662Z,8.55
2019-03-10T19:34:30.482Z,8.20
2019-03-10T19:36:34.670Z,11.95
2019-03-10T19:38:40.319Z,8.75
2019-03-10T19:40:44.451Z,7.45
2019-03-10T19:42:48.304Z,8.40
2019-03-10T19:44:52.164Z,8.63
2019-03-10T19:46:56.037Z,9.93
2019-03-10T19:48:59.876Z,10.30
2019-03-10T19:51:03.748Z,10.18
2019-03-10T19:53:07.621Z,7.42
2019-03-10T19:55:13.594Z,8.75
2019-03-10T19:57:17.535Z,10.15
2019-03-10T19:59:21.383Z,7.53
2019-03-10T20:01:25.207Z,8.63
2019-03-10T20:03:29.141Z,9.53
2019-03-10T20:05:33.003Z,8.88
2019-03-10T20:07:36.825Z,7.35
2019-03-10T20:09:40.766Z,6.58
2019-03-10T20:11:44.623Z,9.73
2019-03-10T20:13:48.489Z,6.12
2019-03-10T20:15:52.797Z,8.15
2019-03-10T20:17:56.860Z,7.87
2019-03-10T20:20:00.667Z,5.90
2019-03-10T20:22:04.565Z,6.05
2019-03-10T20:24:08.388Z,5.65
2019-03-10T20:26:12.259Z,5.17
2019-03-10T20:28:16.115Z,7.50
2019-03-10T20:30:24.859Z,8.80
2019-03-10T20:32:28.763Z,7.83
2019-03-10T20:34:32.581Z,6.28
2019-03-10T20:36:36.451Z,8.35
2019-03-10T20:38:40.295Z,8.85
2019-03-10T20:40:44.129Z,5.78
2019-03-10T20:42:48.029Z,5.33
2019-03-10T20:44:51.854Z,7.50
2019-03-10T20:46:55.670Z,7.12
2019-03-10T20:48:59.567Z,6.87
2019-03-10T20:51:05.300Z,6.55
2019-03-10T20:53:08.918Z,5.67
2019-03-10T20:55:13.787Z,6.55
2019-03-10T20:57:17.681Z,5.70
2019-03-10T20:59:21.519Z,4.83
2019-03-10T21:01:25.363Z,9.35
2019-03-10T21:03:29.303Z,5.95
2019-03-10T21:05:33.170Z,8.93
2019-03-10T21:07:37.032Z,4.42
2019-03-10T21:09:40.844Z,6.60
2019-03-10T21:11:44.715Z,6.85
2019-03-10T21:13:48.542Z,5.60
2019-03-10T21:15:52.414Z,3.95
2019-03-10T21:17:56.288Z,4.15
2019-03-10T21:20:00.357Z,5.12
2019-03-10T21:22:04.311Z,4.47
2019-03-10T21:24:08.143Z,2.67
2019-03-10T21:26:12.008Z,3.37
2019-03-10T21:28:15.879Z,3.70
2019-03-10T21:30:27.502Z,5.58
2019-03-10T21:32:31.347Z,4.75
2019-03-10T21:34:35.255Z,6.47
2019-03-10T21:36:39.386Z,4.22
2019-03-10T21:38:43.210Z,6.90
2019-03-10T21:40:47.075Z,4.03
2019-03-10T21:42:51.098Z,4.10
2019-03-10T21:44:54.987Z,4.33
2019-03-10T21:46:58.961Z,5.85
2019-03-10T21:49:02.810Z,6.20
2019-03-10T21:51:06.681Z,2.62
2019-03-10T21:53:10.560Z,3.90
2019-03-10T21:55:15.570Z,3.50
2019-03-10T21:57:19.411Z,8.70
2019-03-10T21:59:23.289Z,8.55
2019-03-10T22:01:27.081Z,4.00
2019-03-10T22:03:30.919Z,5.58
2019-03-10T22:05:34.823Z,3.17
2019-03-10T22:07:38.699Z,5.28
2019-03-10T22:09:42.540Z,4.45
2019-03-10T22:11:46.402Z,3.15
2019-03-10T22:13:50.290Z,3.72
2019-03-10T22:15:54.127Z,4.45
2019-03-10T22:17:58.031Z,3.12
2019-03-10T22:20:01.927Z,16.37
2019-03-10T22:22:05.800Z,10.40
2019-03-10T22:24:09.635Z,3.20
2019-03-10T22:26:13.466Z,1.82
2019-03-10T22:28:17.358Z,2.22
2019-03-10T22:30:24.643Z,2.15
2019-03-10T22:32:28.498Z,1.32
2019-03-10T22:34:32.371Z,5.28
2019-03-10T22:36:36.242Z,4.35
2019-03-10T22:38:40.079Z,3.60
2019-03-10T22:40:43.934Z,4.37
2019-03-10T22:42:47.906Z,2.90
2019-03-10T22:44:51.716Z,2.37
2019-03-10T22:46:55.594Z,2.25
2019-03-10T22:48:59.738Z,3.25
2019-03-10T22:51:03.532Z,2.85
2019-03-10T22:53:07.691Z,3.42
2019-03-10T22:55:13.572Z,3.17
2019-03-10T22:57:17.443Z,5.12
2019-03-10T22:59:21.316Z,4.30
2019-03-10T23:01:25.342Z,2.12
2019-03-10T23:03:29.445Z,1.55
2019-03-10T23:05:33.327Z,2.58
2019-03-10T23:07:37.198Z,3.25
2019-03-10T23:09:41.099Z,1.65
2019-03-10T23:11:45.023Z,3.10
2019-03-10T23:13:48.912Z,3.77
2019-03-10T23:15:52.783Z,2.05
2019-03-10T23:17:57.203Z,3.22
2019-03-10T23:20:01.137Z,4.00
2019-03-10T23:22:04.964Z,2.08
2019-03-10T23:24:08.823Z,1.10
2019-03-10T23:26:12.850Z,1.77
2019-03-10T23:28:16.750Z,6.22
2019-03-10T23:30:20.700Z,1.87
2019-03-10T23:32:24.559Z,1.22
2019-03-10T23:34:28.442Z,1.00
2019-03-10T23:36:32.294Z,2.10
2019-03-10T23:38:36.137Z,1.77
2019-03-10T23:40:40.002Z,1.42
2019-03-10T23:42:43.831Z,4.62
2019-03-10T23:44:47.733Z,1.75
2019-03-10T23:46:51.612Z,2.02
2019-03-10T23:48:55.463Z,3.55
2019-03-10T23:50:59.314Z,2.67
2019-03-10T23:53:03.154Z,2.65
2019-03-10T23:55:09.135Z,1.60
2019-03-10T23:57:13.025Z,2.92
2019-03-10T23:59:17.853Z,2.12
